Time;durP1;ratioP1;P1;durP2;ratioP2;P2;SDS_P1;SDS_P2;PMS_P1;PMS_P2;Temp;Humidity;BMP_temperature;BMP_pressure;BME280_temperature;BME280_humidity;BME280_pressure;Samples;Min_cycle;Max_cycle;Signal;HPM_P1;HPM_P2
2023/07/24 00:01:02;;;;;;;7.72;3.05;;;19.10;99.90;;;;;;5071131;28;20166;-47
2023/07/24 00:03:28;;;;;;;8.38;3.00;;;19.10;99.90;;;;;;5070976;28;20732;-47
2023/07/24 00:05:58;;;;;;;4.45;2.45;;;19.00;99.90;;;;;;5071815;28;20734;-47
2023/07/24 00:08:24;;;;;;;3.88;2.75;;;18.90;99.90;;;;;;5071999;28;20260;-47
2023/07/24 00:10:49;;;;;;;3.47;3.17;;;19.00;99.90;;;;;;5071585;28;20300;-47
2023/07/24 00:13:15;;;;;;;5.28;3.70;;;18.90;99.90;;;;;;5071322;28;20231;-47
2023/07/24 00:15:40;;;;;;;6.72;3.67;;;18.90;99.90;;;;;;5071234;28;20197;-47
2023/07/24 00:18:06;;;;;;;8.20;4.20;;;18.90;99.90;;;;;;5071534;28;20166;-47
2023/07/24 00:20:31;;;;;;;5.88;3.65;;;18.80;99.90;;;;;;5071197;28;20196;-47
2023/07/24 00:22:57;;;;;;;6.10;4.20;;;18.80;99.90;;;;;;5071252;28;20193;-46
2023/07/24 00:25:22;;;;;;;5.82;4.45;;;18.80;99.90;;;;;;5074899;28;20197;-47
2023/07/24 00:27:48;;;;;;;5.45;4.63;;;18.80;99.90;;;;;;5091268;28;20200;-47
2023/07/24 00:30:13;;;;;;;7.60;5.00;;;18.80;99.90;;;;;;5091356;28;20268;-46
2023/07/24 00:32:39;;;;;;;4.97;4.28;;;18.80;99.90;;;;;;5073238;28;20188;-48
2023/07/24 00:35:05;;;;;;;7.30;3.50;;;18.70;99.90;;;;;;5091377;28;20587;-47
2023/07/24 00:37:31;;;;;;;6.25;3.55;;;18.60;99.90;;;;;;5091274;28;20268;-47
2023/07/24 00:39:56;;;;;;;6.95;4.03;;;18.70;99.90;;;;;;5091263;28;20245;-47
2023/07/24 00:42:22;;;;;;;4.50;3.90;;;18.80;99.90;;;;;;5091937;28;20172;-46
2023/07/24 00:44:48;;;;;;;4.45;3.45;;;18.80;99.90;;;;;;5091508;28;20166;-46
2023/07/24 00:47:13;;;;;;;5.32;3.60;;;18.80;99.90;;;;;;5091489;28;21169;-47
2023/07/24 00:49:40;;;;;;;6.22;3.55;;;18.80;99.90;;;;;;5091178;28;20680;-47
2023/07/24 00:52:06;;;;;;;7.32;3.72;;;18.80;99.90;;;;;;5091384;28;20211;-46
2023/07/24 00:54:33;;;;;;;6.25;3.78;;;18.90;99.90;;;;;;5093827;28;20161;-46
2023/07/24 00:57:00;;;;;;;6.95;3.90;;;18.90;99.90;;;;;;5075289;28;20198;-47
2023/07/24 00:59:25;;;;;;;6.18;3.90;;;19.00;99.90;;;;;;5074617;28;20215;-47
2023/07/24 01:01:51;;;;;;;6.22;3.97;;;18.90;99.90;;;;;;5075090;28;20634;-47
2023/07/24 01:04:18;;;;;;;7.57;3.97;;;18.80;99.90;;;;;;5074571;28;20625;-46
2023/07/24 01:06:43;;;;;;;6.07;3.55;;;18.80;99.90;;;;;;5074498;28;20251;-47
2023/07/24 01:09:10;;;;;;;5.88;4.03;;;18.80;99.90;;;;;;5074525;28;20208;-46
2023/07/24 01:12:10;;;;;;;5.53;4.15;;;18.80;99.90;;;;;;5074198;28;20714;-46
2023/07/24 01:14:47;;;;;;;5.97;4.15;;;18.80;99.90;;;;;;5074339;28;20176;-46
2023/07/24 01:17:17;;;;;;;5.70;4.50;;;18.80;99.90;;;;;;5074257;28;20255;-47
2023/07/24 01:19:48;;;;;;;6.22;4.32;;;18.70;99.90;;;;;;5074168;28;20166;-47
2023/07/24 01:22:28;;;;;;;4.53;3.58;;;18.70;99.90;;;;;;5074465;28;20630;-46
2023/07/24 01:25:22;;;;;;;8.70;4.00;;;18.70;99.90;;;;;;5075688;28;20162;-47
2023/07/24 01:27:48;;;;;;;7.68;4.40;;;18.60;99.90;;;;;;5094073;28;20659;-47
2023/07/24 01:30:17;;;;;;;6.13;3.65;;;18.60;99.90;;;;;;5094514;28;20177;-46
2023/07/24 01:32:43;;;;;;;5.57;4.00;;;18.70;99.90;;;;;;5094333;28;20170;-46
2023/07/24 01:35:09;;;;;;;7.15;3.97;;;18.50;99.90;;;;;;5094284;28;20165;-46
2023/07/24 01:37:35;;;;;;;4.60;4.18;;;18.60;99.90;;;;;;5094159;28;20236;-46
2023/07/24 01:40:02;;;;;;;5.57;3.92;;;18.70;99.90;;;;;;5094459;28;20196;-46
2023/07/24 01:42:28;;;;;;;6.60;4.40;;;18.60;99.90;;;;;;5092531;28;20242;-47
2023/07/24 01:44:55;;;;;;;7.63;3.90;;;18.60;99.90;;;;;;5085481;28;20174;-46
2023/07/24 01:47:22;;;;;;;6.38;3.78;;;18.60;99.90;;;;;;5074145;28;20170;-47
2023/07/24 01:49:48;;;;;;;5.03;4.22;;;18.50;99.90;;;;;;5073790;28;20162;-48
2023/07/24 01:52:13;;;;;;;7.45;4.47;;;18.50;99.90;;;;;;5073769;28;20170;-47
2023/07/24 01:54:39;;;;;;;4.38;3.92;;;18.60;99.90;;;;;;5073697;28;20204;-47
2023/07/24 01:57:05;;;;;;;5.80;3.58;;;18.60;99.90;;;;;;5073843;28;20569;-47
2023/07/24 01:59:31;;;;;;;9.48;3.90;;;18.60;99.90;;;;;;5073583;28;20162;-47
2023/07/24 02:01:56;;;;;;;5.15;3.83;;;18.60;99.90;;;;;;5073609;28;20630;-46
2023/07/24 02:04:22;;;;;;;7.25;4.13;;;18.60;99.90;;;;;;5073705;28;20178;-46
2023/07/24 02:06:48;;;;;;;6.15;4.57;;;18.70;99.90;;;;;;5073317;28;20193;-46
2023/07/24 02:09:15;;;;;;;6.13;4.38;;;18.70;99.90;;;;;;5073360;28;20212;-46
2023/07/24 02:11:40;;;;;;;8.00;4.50;;;18.70;99.90;;;;;;5073125;28;20255;-47
2023/07/24 02:14:06;;;;;;;7.38;4.50;;;18.70;99.90;;;;;;5073688;28;20161;-47
2023/07/24 02:16:31;;;;;;;9.93;4.53;;;18.60;99.90;;;;;;5073257;28;20676;-47
2023/07/24 02:18:57;;;;;;;6.07;4.07;;;18.70;99.90;;;;;;5073198;28;20691;-47
2023/07/24 02:21:22;;;;;;;7.43;4.35;;;18.70;99.90;;;;;;5073608;28;20577;-47
2023/07/24 02:23:48;;;;;;;6.88;4.10;;;18.70;99.90;;;;;;5073061;28;20170;-47
2023/07/24 02:26:13;;;;;;;10.80;4.75;;;18.80;99.90;;;;;;5073030;28;20693;-46
2023/07/24 02:28:39;;;;;;;9.93;4.80;;;18.70;99.90;;;;;;5072971;28;20532;-49
2023/07/24 02:31:04;;;;;;;9.27;5.30;;;18.70;99.90;;;;;;5072931;28;20170;-48
2023/07/24 02:33:30;;;;;;;7.78;4.35;;;18.60;99.90;;;;;;5072569;28;20226;-50
2023/07/24 02:35:56;;;;;;;7.18;4.20;;;18.70;99.90;;;;;;5072636;28;20245;-51
2023/07/24 02:38:21;;;;;;;11.75;4.60;;;18.60;99.90;;;;;;5073449;28;20178;-48
2023/07/24 02:40:47;;;;;;;5.40;4.07;;;18.60;99.90;;;;;;5073012;28;20568;-50
2023/07/24 02:43:12;;;;;;;10.68;4.25;;;18.60;99.90;;;;;;5072862;28;20256;-50
2023/07/24 02:45:38;;;;;;;6.45;4.57;;;18.60;99.90;;;;;;5072887;28;20247;-47
2023/07/24 02:48:04;;;;;;;9.30;5.05;;;18.60;99.90;;;;;;5072725;28;20166;-50
2023/07/24 02:50:30;;;;;;;22.45;5.22;;;18.60;99.90;;;;;;5072718;28;20245;-48
2023/07/24 02:52:55;;;;;;;6.95;4.55;;;18.60;99.90;;;;;;5072529;28;20198;-46
2023/07/24 02:55:21;;;;;;;9.45;5.97;;;18.60;99.90;;;;;;5072793;28;20170;-46
2023/07/24 02:57:46;;;;;;;6.95;4.13;;;18.60;99.90;;;;;;5072339;28;20178;-47
2023/07/24 03:00:12;;;;;;;9.05;5.10;;;18.70;99.90;;;;;;5072579;28;20173;-46
2023/07/24 03:02:38;;;;;;;9.65;4.75;;;18.60;99.90;;;;;;5072215;28;20637;-46
2023/07/24 03:05:04;;;;;;;12.43;5.55;;;18.60;99.90;;;;;;5072336;28;20622;-46
2023/07/24 03:07:30;;;;;;;11.20;5.20;;;18.50;99.90;;;;;;5072527;28;20176;-46
2023/07/24 03:09:55;;;;;;;12.57;5.90;;;18.70;99.90;;;;;;5072120;28;20536;-46
2023/07/24 03:12:21;;;;;;;9.50;4.65;;;18.60;99.90;;;;;;5077443;28;20209;-46
2023/07/24 03:14:47;;;;;;;9.05;5.68;;;18.60;99.90;;;;;;5083470;28;20182;-46
2023/07/24 03:17:13;;;;;;;10.32;5.75;;;18.60;99.90;;;;;;5071475;28;20239;-46
2023/07/24 03:19:38;;;;;;;6.93;5.00;;;18.60;99.90;;;;;;5071959;28;20162;-47
2023/07/24 03:22:04;;;;;;;11.48;4.60;;;18.60;99.90;;;;;;5071964;28;20665;-46
2023/07/24 03:24:30;;;;;;;9.07;5.47;;;18.60;99.90;;;;;;5072198;28;20261;-47
2023/07/24 03:26:55;;;;;;;9.35;4.90;;;18.50;99.90;;;;;;5071878;28;20323;-46
2023/07/24 03:29:21;;;;;;;8.27;4.78;;;18.50;99.90;;;;;;5072194;28;20208;-46
2023/07/24 03:31:46;;;;;;;7.97;4.50;;;18.50;99.90;;;;;;5053801;28;20178;-46
2023/07/24 03:34:12;;;;;;;7.45;4.47;;;18.40;99.90;;;;;;5071767;28;20177;-46
2023/07/24 03:36:41;;;;;;;6.47;4.53;;;18.40;99.90;;;;;;5071572;28;20673;-47
2023/07/24 03:39:06;;;;;;;6.55;4.32;;;18.50;99.90;;;;;;5053758;28;20280;-46
2023/07/24 03:41:32;;;;;;;11.18;4.78;;;18.50;99.90;;;;;;5071622;28;20260;-46
2023/07/24 03:43:58;;;;;;;8.55;4.80;;;18.50;99.90;;;;;;5090004;28;20173;-46
2023/07/24 03:46:23;;;;;;;12.00;5.20;;;18.50;99.90;;;;;;5091915;28;20162;-46
2023/07/24 03:48:50;;;;;;;5.32;4.82;;;18.50;99.90;;;;;;5092155;28;20592;-46
2023/07/24 03:51:16;;;;;;;8.65;4.53;;;18.50;99.90;;;;;;5091714;28;20170;-47
2023/07/24 03:53:41;;;;;;;8.23;5.53;;;18.50;99.90;;;;;;5091687;28;20693;-46
2023/07/24 03:56:07;;;;;;;7.80;5.38;;;18.50;99.90;;;;;;5091633;28;20201;-46
2023/07/24 03:58:32;;;;;;;9.38;5.55;;;18.60;99.90;;;;;;5091705;28;20530;-46
2023/07/24 04:00:58;;;;;;;12.40;6.18;;;18.50;99.90;;;;;;5091644;28;20169;-46
2023/07/24 04:03:23;;;;;;;7.82;5.07;;;18.60;99.90;;;;;;5091682;28;20204;-46
2023/07/24 04:05:49;;;;;;;10.35;5.40;;;18.60;99.90;;;;;;5092156;28;20169;-47
2023/07/24 04:08:14;;;;;;;10.65;5.32;;;18.60;99.90;;;;;;5091561;28;20229;-46
2023/07/24 04:10:40;;;;;;;7.57;5.32;;;18.60;99.90;;;;;;5091442;28;20196;-47
2023/07/24 04:13:06;;;;;;;11.07;5.22;;;18.60;99.90;;;;;;5077473;28;20221;-46
2023/07/24 04:15:31;;;;;;;14.02;5.45;;;18.60;99.90;;;;;;5088709;28;20612;-46
2023/07/24 04:17:57;;;;;;;12.50;5.28;;;18.70;99.90;;;;;;5091505;28;20174;-46
2023/07/24 04:20:22;;;;;;;10.73;5.50;;;18.60;99.90;;;;;;5091971;28;20168;-47
2023/07/24 04:22:48;;;;;;;8.27;5.72;;;18.60;99.90;;;;;;5091824;28;20171;-46
2023/07/24 04:25:14;;;;;;;9.93;5.32;;;18.70;99.90;;;;;;5091161;28;20222;-46
2023/07/24 04:27:40;;;;;;;8.85;5.00;;;18.70;99.90;;;;;;5092787;28;20167;-46
2023/07/24 04:30:06;;;;;;;10.93;5.30;;;18.70;99.90;;;;;;5095500;28;20169;-47
2023/07/24 04:32:31;;;;;;;9.10;5.07;;;18.70;99.90;;;;;;5095484;28;20158;-46
2023/07/24 04:34:57;;;;;;;10.40;5.82;;;18.70;99.90;;;;;;5093506;28;20226;-47
2023/07/24 04:37:23;;;;;;;10.30;6.40;;;18.80;99.90;;;;;;5095358;28;20211;-47
2023/07/24 04:39:49;;;;;;;9.90;5.97;;;16.00;99.90;;;;;;5095337;28;20171;-47
2023/07/24 04:42:14;;;;;;;13.40;6.80;;;18.80;99.90;;;;;;5077500;28;20177;-46
2023/07/24 04:44:40;;;;;;;13.05;6.85;;;18.80;99.90;;;;;;5095473;28;20268;-46
2023/07/24 04:47:05;;;;;;;12.93;6.85;;;18.70;99.90;;;;;;5095194;28;20597;-46
2023/07/24 04:49:32;;;;;;;13.43;6.10;;;18.80;99.90;;;;;;5095106;28;20523;-46
2023/07/24 04:51:58;;;;;;;7.35;4.80;;;18.80;99.90;;;;;;5095418;28;20170;-46
2023/07/24 04:54:24;;;;;;;12.32;5.43;;;18.80;99.90;;;;;;5082756;28;20169;-47
2023/07/24 04:56:50;;;;;;;11.95;5.82;;;18.80;99.90;;;;;;5075127;28;20634;-46
2023/07/24 04:59:15;;;;;;;11.40;5.72;;;18.80;99.90;;;;;;5074654;28;20169;-46
2023/07/24 05:01:41;;;;;;;14.90;6.45;;;18.80;99.90;;;;;;5074711;28;20174;-47
2023/07/24 05:04:06;;;;;;;15.20;7.78;;;18.80;99.90;;;;;;5074526;28;20170;-45
2023/07/24 05:06:32;;;;;;;14.82;7.10;;;18.90;99.90;;;;;;5074544;28;20528;-45
2023/07/24 05:08:57;;;;;;;15.07;7.00;;;18.80;99.90;;;;;;5074522;28;20161;-45
2023/07/24 05:11:23;;;;;;;11.88;6.00;;;18.90;99.90;;;;;;5074216;28;20267;-46
2023/07/24 05:13:48;;;;;;;19.80;6.72;;;18.90;99.90;;;;;;5076140;28;20185;-45
2023/07/24 05:16:14;;;;;;;13.55;7.25;;;18.90;99.90;;;;;;5074363;28;20614;-48
2023/07/24 05:18:39;;;;;;;16.25;7.53;;;19.10;99.90;;;;;;5074246;28;20653;-45
2023/07/24 05:21:05;;;;;;;16.08;7.75;;;19.10;99.90;;;;;;5074128;28;20699;-46
2023/07/24 05:23:30;;;;;;;15.38;7.28;;;19.10;99.90;;;;;;5074174;28;20601;-46
2023/07/24 05:26:00;;;;;;;13.55;6.97;;;19.10;99.90;;;;;;5074091;28;20166;-49
2023/07/24 05:28:27;;;;;;;12.15;7.35;;;19.30;99.90;;;;;;5073988;28;20165;-45
2023/07/24 05:30:53;;;;;;;11.40;6.00;;;19.30;99.90;;;;;;5074576;28;20257;-48
2023/07/24 05:33:19;;;;;;;9.55;5.60;;;19.40;99.90;;;;;;5074404;28;20247;-48
2023/07/24 05:35:44;;;;;;;10.35;5.00;;;19.40;99.90;;;;;;5074090;28;20212;-47
2023/07/24 05:38:10;;;;;;;8.82;4.88;;;19.40;99.90;;;;;;5073781;28;20209;-45
2023/07/24 05:40:35;;;;;;;5.07;4.43;;;19.40;99.90;;;;;;5073136;28;20522;-46
2023/07/24 05:43:01;;;;;;;8.40;4.22;;;19.60;99.90;;;;;;5073913;28;20245;-47
2023/07/24 05:45:27;;;;;;;8.55;4.53;;;19.50;99.90;;;;;;5073869;28;20170;-48
2023/07/24 05:47:53;;;;;;;7.35;4.90;;;19.50;99.90;;;;;;5073770;28;20178;-47
2023/07/24 05:50:19;;;;;;;7.55;4.65;;;19.40;99.90;;;;;;5089136;28;20231;-46
2023/07/24 05:52:44;;;;;;;7.15;4.13;;;19.50;99.90;;;;;;5081994;28;20170;-47
2023/07/24 05:55:10;;;;;;;11.95;5.07;;;19.40;99.90;;;;;;5073576;28;20213;-46
2023/07/24 05:57:36;;;;;;;9.48;4.63;;;19.50;99.90;;;;;;5092438;28;20239;-46
2023/07/24 06:00:04;;;;;;;5.72;3.95;;;19.50;99.90;;;;;;5093852;28;20589;-46
2023/07/24 06:02:29;;;;;;;10.55;4.55;;;19.40;99.90;;;;;;5093744;28;20191;-46
2023/07/24 06:04:55;;;;;;;6.32;4.00;;;19.50;99.90;;;;;;5093735;28;20169;-46
2023/07/24 06:07:20;;;;;;;4.97;3.42;;;19.60;99.90;;;;;;5094093;28;20207;-46
2023/07/24 06:09:46;;;;;;;6.18;4.03;;;19.60;99.90;;;;;;5093495;28;20211;-46
2023/07/24 06:12:11;;;;;;;8.05;3.70;;;19.70;99.90;;;;;;5084383;28;20327;-46
2023/07/24 06:14:37;;;;;;;6.95;3.78;;;19.80;99.90;;;;;;5091154;28;20201;-46
2023/07/24 06:17:03;;;;;;;4.28;3.65;;;19.80;99.90;;;;;;5093354;28;20201;-46
2023/07/24 06:19:29;;;;;;;4.15;3.75;;;19.90;99.90;;;;;;5093403;28;20165;-46
2023/07/24 06:21:54;;;;;;;4.68;3.47;;;19.80;99.90;;;;;;5093607;28;20177;-46
2023/07/24 06:24:20;;;;;;;5.03;3.95;;;19.70;99.90;;;;;;5093835;28;20170;-46
2023/07/24 06:26:46;;;;;;;5.35;4.10;;;19.80;99.90;;;;;;5081021;28;20633;-46
2023/07/24 06:29:11;;;;;;;6.32;3.83;;;19.80;99.90;;;;;;5072961;28;20170;-46
2023/07/24 06:31:37;;;;;;;7.43;3.40;;;19.90;99.90;;;;;;5072898;28;20166;-47
2023/07/24 06:34:02;;;;;;;6.85;3.45;;;19.90;99.90;;;;;;5072898;28;20516;-46
2023/07/24 06:36:28;;;;;;;5.82;3.50;;;19.90;99.90;;;;;;5072730;28;20208;-46
2023/07/24 06:38:54;;;;;;;8.40;3.92;;;20.00;99.90;;;;;;5072715;28;20679;-46
2023/07/24 06:41:22;;;;;;;6.95;3.40;;;20.00;99.90;;;;;;5055202;28;20572;-46
2023/07/24 06:43:49;;;;;;;4.13;3.35;;;20.00;99.90;;;;;;5073331;28;20170;-46
2023/07/24 06:46:14;;;;;;;5.13;3.80;;;20.10;99.90;;;;;;5072595;28;20525;-46
2023/07/24 06:48:40;;;;;;;5.30;3.40;;;20.00;99.90;;;;;;5086027;28;20259;-47
2023/07/24 06:51:05;;;;;;;5.05;3.38;;;20.00;99.90;;;;;;5091801;28;20161;-47
2023/07/24 06:53:31;;;;;;;4.97;3.13;;;20.00;99.90;;;;;;5074517;28;20221;-47
2023/07/24 06:55:56;;;;;;;4.22;3.00;;;20.00;99.90;;;;;;5092288;28;20280;-47
2023/07/24 06:58:22;;;;;;;3.35;3.05;;;20.00;99.90;;;;;;5093156;28;20218;-46
2023/07/24 07:00:47;;;;;;;4.88;3.17;;;20.00;99.90;;;;;;5093006;28;20240;-46
2023/07/24 07:03:13;;;;;;;3.78;3.00;;;20.10;99.90;;;;;;5092592;28;20165;-46
2023/07/24 07:05:38;;;;;;;5.60;3.22;;;20.20;99.90;;;;;;5092542;28;20624;-45
2023/07/24 07:08:04;;;;;;;5.82;3.03;;;20.20;99.90;;;;;;5081290;28;20261;-46
2023/07/24 07:10:31;;;;;;;5.28;3.60;;;20.10;99.90;;;;;;5072090;28;20253;-45
2023/07/24 07:13:07;;;;;;;4.68;3.33;;;20.20;99.90;;;;;;5068790;28;21143;-46
2023/07/24 07:15:33;;;;;;;3.60;2.95;;;20.20;99.90;;;;;;5068881;28;20178;-45
2023/07/24 07:17:59;;;;;;;3.78;3.17;;;20.10;99.90;;;;;;5068388;28;20527;-45
2023/07/24 07:20:24;;;;;;;4.15;2.83;;;20.10;99.90;;;;;;5068459;28;20178;-46
2023/07/24 07:22:50;;;;;;;3.88;2.95;;;20.20;99.90;;;;;;5069027;28;20185;-46
2023/07/24 07:25:15;;;;;;;5.15;3.97;;;20.20;99.90;;;;;;5068664;28;20528;-45
2023/07/24 07:27:41;;;;;;;4.07;3.50;;;20.30;99.90;;;;;;5068456;28;20162;-45
2023/07/24 07:30:07;;;;;;;4.47;3.25;;;20.30;99.90;;;;;;5068767;28;20170;-45
2023/07/24 07:32:33;;;;;;;3.83;3.28;;;20.40;99.90;;;;;;5068636;28;20213;-45
2023/07/24 07:34:58;;;;;;;5.53;3.40;;;20.40;99.90;;;;;;5068666;28;20173;-45
2023/07/24 07:37:24;;;;;;;5.03;3.80;;;20.40;99.90;;;;;;5068072;28;20532;-45
2023/07/24 07:39:49;;;;;;;5.68;3.20;;;20.40;99.90;;;;;;5068955;28;20626;-47
2023/07/24 07:42:15;;;;;;;5.72;3.67;;;20.40;99.90;;;;;;5068515;28;20185;-45
2023/07/24 07:44:40;;;;;;;7.03;3.78;;;20.60;99.90;;;;;;5068219;28;20181;-45
2023/07/24 07:47:06;;;;;;;3.65;3.13;;;20.60;99.90;;;;;;5068023;28;20236;-45
2023/07/24 07:49:31;;;;;;;4.28;3.47;;;20.60;99.90;;;;;;5068079;28;20165;-46
2023/07/24 07:51:57;;;;;;;6.30;3.25;;;20.60;99.90;;;;;;5068024;28;20202;-45
2023/07/24 07:54:22;;;;;;;4.97;3.10;;;20.80;99.90;;;;;;5068047;28;20185;-46
2023/07/24 07:56:48;;;;;;;4.00;3.22;;;20.90;99.90;;;;;;5068309;28;20178;-46
2023/07/24 07:59:14;;;;;;;4.97;3.78;;;20.80;99.90;;;;;;5067860;28;20219;-45
2023/07/24 08:01:39;;;;;;;4.43;3.95;;;21.10;99.90;;;;;;5067724;28;20196;-46
2023/07/24 08:04:05;;;;;;;7.05;3.70;;;21.20;99.90;;;;;;5067836;28;20629;-45
2023/07/24 08:06:30;;;;;;;4.82;3.75;;;21.30;99.90;;;;;;5067435;28;20173;-45
2023/07/24 08:08:56;;;;;;;5.47;3.50;;;21.20;99.90;;;;;;5067504;28;20178;-46
2023/07/24 08:11:21;;;;;;;5.55;3.45;;;21.30;99.90;;;;;;5066916;28;20329;-46
2023/07/24 08:13:47;;;;;;;6.50;3.53;;;24.30;99.90;;;;;;5067788;28;20162;-46
2023/07/24 08:16:18;;;;;;;3.72;3.10;;;21.10;99.90;;;;;;5067211;28;20174;-45
2023/07/24 08:18:47;;;;;;;3.92;3.53;;;21.20;99.90;;;;;;5067238;28;20170;-46
2023/07/24 08:21:13;;;;;;;6.20;3.20;;;21.10;99.90;;;;;;5067363;28;20179;-45
2023/07/24 08:23:39;;;;;;;4.25;3.13;;;21.20;99.90;;;;;;5058140;28;20652;-45
2023/07/24 08:26:05;;;;;;;3.97;3.03;;;21.10;99.90;;;;;;5053949;28;20174;-44
2023/07/24 08:28:31;;;;;;;3.95;3.53;;;21.10;99.90;;;;;;5053860;28;20236;-45
2023/07/24 08:30:58;;;;;;;8.65;4.00;;;21.10;99.90;;;;;;5053768;28;20226;-45
2023/07/24 08:33:24;;;;;;;4.15;3.38;;;21.00;99.90;;;;;;5053575;28;20182;-45
2023/07/24 08:36:04;;;;;;;5.30;3.50;;;21.10;99.90;;;;;;5052527;28;20170;-45
2023/07/24 08:38:30;;;;;;;4.75;3.40;;;21.10;99.90;;;;;;5053600;28;20221;-45
2023/07/24 08:41:06;;;;;;;3.75;3.35;;;21.20;99.90;;;;;;5053570;28;20397;-47
2023/07/24 08:43:33;;;;;;;6.00;3.70;;;21.30;99.90;;;;;;5053565;28;20182;-45
2023/07/24 08:46:00;;;;;;;4.50;3.28;;;21.30;99.90;;;;;;5053654;28;20178;-46
2023/07/24 08:48:38;;;;;;;5.10;3.30;;;21.20;99.90;;;;;;5041758;28;20708;-45
2023/07/24 08:51:05;;;;;;;4.88;3.20;;;21.10;99.90;;;;;;5053676;28;20198;-45
2023/07/24 08:53:36;;;;;;;3.97;3.35;;;21.10;99.90;;;;;;5052922;28;20642;-46
2023/07/24 08:56:06;;;;;;;3.20;2.90;;;21.10;99.90;;;;;;5053522;28;20175;-50
2023/07/24 08:58:33;;;;;;;5.03;3.38;;;21.00;99.90;;;;;;5053290;28;20220;-47
2023/07/24 09:01:00;;;;;;;3.55;3.00;;;21.00;99.90;;;;;;5053125;28;20178;-46
2023/07/24 09:03:26;;;;;;;4.50;3.30;;;20.90;99.90;;;;;;5053230;28;20245;-46
2023/07/24 09:05:53;;;;;;;4.60;3.08;;;21.00;99.90;;;;;;5052952;28;20270;-46
2023/07/24 09:08:36;;;;;;;4.25;3.00;;;20.80;99.90;;;;;;5053202;28;20174;-49
2023/07/24 09:11:02;;;;;;;3.42;2.88;;;20.80;99.90;;;;;;5052786;28;20252;-47
2023/07/24 09:13:29;;;;;;;3.20;2.90;;;20.90;99.90;;;;;;5052761;28;20174;-46
2023/07/24 09:15:55;;;;;;;4.00;3.00;;;20.80;99.90;;;;;;5052786;28;20586;-50
2023/07/24 09:18:20;;;;;;;3.67;3.38;;;20.80;99.90;;;;;;5052870;28;20261;-45
2023/07/24 09:20:47;;;;;;;3.53;3.20;;;20.70;99.90;;;;;;5052511;28;20177;-46
2023/07/24 09:23:13;;;;;;;3.70;3.05;;;20.80;99.90;;;;;;5052588;28;20257;-46
2023/07/24 09:25:42;;;;;;;3.42;3.10;;;20.70;99.90;;;;;;5053058;28;20181;-46
2023/07/24 09:28:17;;;;;;;3.50;3.20;;;20.90;99.90;;;;;;5052417;28;20195;-46
2023/07/24 09:30:55;;;;;;;3.63;2.85;;;20.80;99.90;;;;;;5052836;28;20166;-46
2023/07/24 09:33:23;;;;;;;3.67;3.13;;;21.00;99.90;;;;;;5053078;28;20170;-46
2023/07/24 09:36:00;;;;;;;4.45;2.90;;;21.10;99.90;;;;;;5051973;28;20175;-46
2023/07/24 09:38:25;;;;;;;3.47;2.78;;;21.10;99.90;;;;;;5051916;28;20174;-45
2023/07/24 09:40:52;;;;;;;3.45;2.95;;;21.30;99.90;;;;;;5052466;28;20185;-47
2023/07/24 09:43:19;;;;;;;3.67;3.10;;;21.30;99.90;;;;;;5051364;28;20198;-46
2023/07/24 09:45:46;;;;;;;3.03;2.72;;;21.50;99.90;;;;;;5052328;28;20234;-48
2023/07/24 09:48:14;;;;;;;4.93;3.03;;;21.70;99.90;;;;;;5051398;28;20166;-46
2023/07/24 09:50:41;;;;;;;3.88;2.72;;;21.90;99.90;;;;;;5051714;28;20216;-46
2023/07/24 09:53:19;;;;;;;4.75;2.92;;;21.90;99.90;;;;;;5051571;28;20182;-46
2023/07/24 09:56:05;;;;;;;4.70;2.80;;;22.20;99.90;;;;;;5051861;28;20170;-45
2023/07/24 09:58:38;;;;;;;3.00;2.70;;;22.40;99.90;;;;;;5051824;28;20173;-45
2023/07/24 10:01:07;;;;;;;3.05;2.75;;;22.30;99.90;;;;;;5052223;28;20161;-46
2023/07/24 10:04:00;;;;;;;4.85;2.58;;;22.30;99.90;;;;;;5051579;28;20184;-45
2023/07/24 10:06:26;;;;;;;3.75;2.92;;;22.20;99.90;;;;;;5030253;28;20639;-45
2023/07/24 10:08:53;;;;;;;3.50;2.70;;;22.30;99.90;;;;;;5041226;28;20182;-45
2023/07/24 10:11:20;;;;;;;4.82;2.83;;;22.50;99.90;;;;;;5051576;28;20681;-45
2023/07/24 10:13:46;;;;;;;4.60;2.58;;;22.70;99.90;;;;;;5051940;28;20186;-46
2023/07/24 10:16:11;;;;;;;4.28;2.95;;;23.00;99.90;;;;;;5051680;28;20600;-46
2023/07/24 10:18:45;;;;;;;3.83;2.90;;;23.00;99.90;;;;;;5051764;28;20175;-46
2023/07/24 10:21:11;;;;;;;4.55;2.75;;;23.00;99.90;;;;;;5051752;28;20820;-45
2023/07/24 10:23:44;;;;;;;4.78;2.67;;;23.00;99.90;;;;;;5051654;28;20162;-46
2023/07/24 10:26:10;;;;;;;3.28;2.67;;;23.00;99.90;;;;;;5051901;28;20261;-46
2023/07/24 10:28:40;;;;;;;3.83;2.72;;;23.00;99.90;;;;;;5051985;28;20170;-45
2023/07/24 10:31:20;;;;;;;3.83;2.70;;;23.00;99.90;;;;;;5051605;28;20564;-46
2023/07/24 10:33:46;;;;;;;3.40;2.50;;;23.00;99.90;;;;;;5051543;28;20166;-46
2023/07/24 10:36:13;;;;;;;5.10;2.60;;;23.30;99.90;;;;;;5051610;28;20174;-48
2023/07/24 10:38:43;;;;;;;3.17;2.47;;;23.40;99.90;;;;;;5050226;28;20170;-45
2023/07/24 10:41:10;;;;;;;3.80;2.50;;;23.60;99.90;;;;;;5049845;28;20172;-46
2023/07/24 10:43:44;;;;;;;5.72;2.38;;;23.70;99.90;;;;;;5050898;28;20170;-46
2023/07/24 10:46:10;;;;;;;4.15;2.88;;;23.70;99.90;;;;;;5051432;28;20162;-46
2023/07/24 10:48:35;;;;;;;2.95;2.55;;;23.80;99.90;;;;;;5051244;28;20174;-46
2023/07/24 10:51:08;;;;;;;2.55;2.35;;;24.00;99.90;;;;;;5050948;28;20492;-47
2023/07/24 10:53:36;;;;;;;3.67;2.63;;;23.90;99.90;;;;;;5051221;28;20549;-47
2023/07/24 10:56:02;;;;;;;6.10;3.05;;;23.70;99.90;;;;;;5050994;28;20589;-45
2023/07/24 10:58:29;;;;;;;23.20;12.70;;;23.50;99.90;;;;;;5049590;28;20213;-46
2023/07/24 11:00:56;;;;;;;5.03;3.72;;;23.20;99.90;;;;;;5050925;28;20560;-45
2023/07/24 11:03:22;;;;;;;3.45;2.90;;;22.90;99.90;;;;;;5050601;28;20630;-45
2023/07/24 11:05:47;;;;;;;5.45;2.90;;;22.70;99.90;;;;;;5051059;28;20204;-45
2023/07/24 11:08:19;;;;;;;5.05;3.60;;;22.60;99.90;;;;;;5051113;28;20626;-46
2023/07/24 11:10:52;;;;;;;3.83;2.83;;;22.40;99.90;;;;;;5050434;28;20162;-47
2023/07/24 11:13:20;;;;;;;4.72;2.97;;;22.20;99.90;;;;;;5031556;28;20639;-48
2023/07/24 11:15:48;;;;;;;4.55;2.75;;;22.10;99.90;;;;;;5031409;28;20170;-48
2023/07/24 11:18:13;;;;;;;3.90;2.83;;;21.90;99.90;;;;;;5030309;28;20182;-45
2023/07/24 11:20:46;;;;;;;6.00;3.00;;;21.80;99.90;;;;;;5031213;28;20171;-46
2023/07/24 11:23:12;;;;;;;12.15;4.60;;;21.50;99.90;;;;;;5031140;28;20171;-48
2023/07/24 11:25:39;;;;;;;9.10;4.03;;;21.30;99.90;;;;;;5037795;28;20166;-50
2023/07/24 11:28:07;;;;;;;9.45;3.85;;;21.00;99.90;;;;;;5050311;28;20181;-47
2023/07/24 11:30:33;;;;;;;7.47;3.38;;;20.10;99.90;;;;;;5050401;28;20198;-46
2023/07/24 11:33:02;;;;;;;8.35;3.10;;;19.60;99.90;;;;;;5050151;28;20678;-45
2023/07/24 11:35:27;;;;;;;5.88;2.53;;;19.70;99.90;;;;;;5050473;28;20167;-45
2023/07/24 11:37:53;;;;;;;6.20;2.10;;;19.90;99.90;;;;;;5050222;28;20177;-52
2023/07/24 11:40:20;;;;;;;3.97;2.33;;;20.20;99.90;;;;;;5050949;28;20185;-48
2023/07/24 11:42:47;;;;;;;4.95;2.00;;;20.90;99.90;;;;;;5050902;28;20254;-50
2023/07/24 11:45:13;;;;;;;4.30;2.30;;;21.30;99.90;;;;;;5050455;28;20170;-45
2023/07/24 11:47:49;;;;;;;9.30;3.67;;;21.40;99.90;;;;;;5050545;28;20186;-45
2023/07/24 11:50:16;;;;;;;2.92;1.90;;;21.30;99.90;;;;;;5049511;28;20534;-45
2023/07/24 11:52:44;;;;;;;2.22;2.03;;;21.00;99.90;;;;;;5050670;28;20292;-45
2023/07/24 11:55:11;;;;;;;2.45;2.03;;;21.00;99.90;;;;;;5050706;28;20178;-46
2023/07/24 11:57:37;;;;;;;3.72;1.98;;;20.90;99.90;;;;;;5050698;28;20210;-47
2023/07/24 12:00:05;;;;;;;3.05;1.70;;;20.90;99.90;;;;;;5053312;28;20194;-51
2023/07/24 12:02:33;;;;;;;2.10;1.90;;;20.90;99.90;;;;;;5053161;28;20205;-49
2023/07/24 12:05:00;;;;;;;5.78;2.10;;;21.20;99.90;;;;;;5053954;28;20163;-46
2023/07/24 12:07:34;;;;;;;2.55;1.70;;;21.40;99.90;;;;;;5054502;28;20167;-52
2023/07/24 12:10:01;;;;;;;3.67;2.20;;;21.60;99.90;;;;;;5054260;28;20159;-51
2023/07/24 12:12:43;;;;;;;2.75;2.30;;;21.70;99.90;;;;;;5054119;28;20281;-50
2023/07/24 12:15:09;;;;;;;3.13;1.67;;;22.00;99.90;;;;;;5054144;28;20173;-53
2023/07/24 12:17:36;;;;;;;2.05;1.83;;;22.50;99.90;;;;;;5053305;28;20185;-52
2023/07/24 12:20:02;;;;;;;3.33;1.70;;;22.70;99.90;;;;;;5054126;28;20166;-51
2023/07/24 12:22:27;;;;;;;1.77;1.60;;;22.60;99.90;;;;;;5054131;28;20525;-51
2023/07/24 12:24:53;;;;;;;1.75;1.42;;;22.70;99.90;;;;;;5053934;28;20174;-52
2023/07/24 12:27:18;;;;;;;1.63;1.52;;;22.90;99.90;;;;;;5054237;28;20189;-50
2023/07/24 12:29:44;;;;;;;3.85;1.60;;;22.90;99.90;;;;;;5053928;28;20173;-51
2023/07/24 12:32:10;;;;;;;3.53;1.60;;;22.90;99.90;;;;;;5052160;28;20214;-53
2023/07/24 12:34:35;;;;;;;2.47;1.70;;;22.90;99.90;;;;;;5053812;28;20249;-49
2023/07/24 12:37:01;;;;;;;1.73;1.40;;;23.10;99.90;;;;;;5053311;28;20185;-51
2023/07/24 12:39:26;;;;;;;2.92;1.30;;;23.10;99.90;;;;;;5053498;28;20542;-51
2023/07/24 12:41:52;;;;;;;2.38;1.40;;;22.80;99.90;;;;;;5053618;28;20531;-49
2023/07/24 12:44:17;;;;;;;4.32;1.40;;;22.70;99.90;;;;;;5053657;28;20169;-48